createdAt,value
2018-12-31T00:01:48.479Z,5.90
2018-12-31T00:04:15.851Z,5.90
2018-12-31T00:06:43.702Z,5.90
2018-12-31T00:09:12.251Z,6.00
2018-12-31T00:11:39.589Z,5.90
2018-12-31T00:14:06.951Z,6.00
2018-12-31T00:16:34.221Z,6.00
2018-12-31T00:19:01.443Z,5.90
2018-12-31T00:21:28.675Z,6.00
2018-12-31T00:23:56.116Z,6.00
2018-12-31T00:26:23.476Z,5.90
2018-12-31T00:28:50.711Z,5.80
2018-12-31T00:31:17.966Z,6.00
2018-12-31T00:33:45.187Z,6.10
2018-12-31T00:36:12.428Z,6.00
2018-12-31T00:38:39.778Z,6.00
2018-12-31T00:41:07.111Z,6.10
2018-12-31T00:43:34.369Z,6.00
2018-12-31T00:46:01.582Z,5.90
2018-12-31T00:48:34.704Z,6.00
2018-12-31T00:51:01.953Z,6.00
2018-12-31T00:53:29.193Z,6.00
2018-12-31T00:55:56.416Z,6.10
2018-12-31T00:58:23.731Z,6.20
2018-12-31T01:00:50.962Z,5.90
2018-12-31T01:03:18.215Z,6.10
2018-12-31T01:05:45.554Z,6.10
2018-12-31T01:08:12.818Z,6.10
2018-12-31T01:10:40.618Z,6.10
2018-12-31T01:13:07.915Z,6.00
2018-12-31T01:15:35.157Z,6.10
2018-12-31T01:18:02.376Z,6.00
2018-12-31T01:20:29.728Z,6.10
2018-12-31T01:22:56.944Z,6.00
2018-12-31T01:25:24.192Z,6.00
2018-12-31T01:27:51.452Z,5.90
2018-12-31T01:30:18.708Z,5.90
2018-12-31T01:32:45.947Z,6.00
2018-12-31T01:35:13.175Z,5.80
2018-12-31T01:37:40.424Z,6.00
2018-12-31T01:40:07.659Z,6.00
2018-12-31T01:42:34.876Z,5.80
2018-12-31T01:45:02.141Z,5.90
2018-12-31T01:47:29.475Z,5.80
2018-12-31T01:49:56.700Z,5.90
2018-12-31T01:52:23.938Z,5.90
2018-12-31T01:54:51.183Z,6.00
2018-12-31T01:57:18.496Z,5.90
2018-12-31T01:59:45.724Z,6.00
2018-12-31T02:02:12.954Z,5.90
2018-12-31T02:04:40.184Z,6.00
2018-12-31T02:07:07.428Z,5.90
2018-12-31T02:09:36.297Z,6.10
2018-12-31T02:12:03.707Z,6.00
2018-12-31T02:14:30.951Z,5.90
2018-12-31T02:16:58.195Z,6.00
2018-12-31T02:19:25.423Z,6.10
2018-12-31T02:21:52.674Z,6.00
2018-12-31T02:24:19.907Z,6.10
2018-12-31T02:26:47.155Z,6.00
2018-12-31T02:29:14.375Z,6.10
2018-12-31T02:31:41.627Z,6.10
2018-12-31T02:34:08.875Z,6.00
2018-12-31T02:36:36.187Z,6.10
2018-12-31T02:39:05.989Z,6.10
2018-12-31T02:41:33.267Z,6.00
2018-12-31T02:44:00.491Z,6.10
2018-12-31T02:46:27.731Z,6.10
2018-12-31T02:48:54.959Z,6.10
2018-12-31T02:51:22.193Z,6.00
2018-12-31T02:53:49.453Z,6.00
2018-12-31T02:56:16.663Z,6.00
2018-12-31T02:58:43.899Z,6.10
2018-12-31T03:01:11.144Z,6.00
2018-12-31T03:03:38.395Z,6.00
2018-12-31T03:06:05.619Z,6.10
2018-12-31T03:08:32.876Z,6.10
2018-12-31T03:11:00.179Z,6.00
2018-12-31T03:13:27.419Z,6.10
2018-12-31T03:18:21.958Z,6.20
2018-12-31T03:20:49.179Z,6.20
2018-12-31T03:23:16.435Z,6.10
2018-12-31T03:26:03.455Z,6.00
2018-12-31T03:28:30.723Z,6.10
2018-12-31T03:30:57.975Z,6.00
2018-12-31T03:33:25.291Z,6.20
2018-12-31T03:35:52.503Z,6.20
2018-12-31T03:38:19.712Z,6.10
2018-12-31T03:40:46.965Z,6.10
2018-12-31T03:43:14.183Z,6.10
2018-12-31T03:45:41.415Z,6.10
2018-12-31T03:48:08.667Z,6.10
2018-12-31T03:50:35.935Z,6.10
2018-12-31T03:53:03.181Z,6.10
2018-12-31T03:55:30.391Z,6.00
2018-12-31T03:57:57.623Z,6.10
2018-12-31T04:00:24.872Z,6.00
2018-12-31T04:02:52.096Z,6.00
2018-12-31T04:05:19.331Z,5.90
2018-12-31T04:07:52.925Z,5.90
2018-12-31T04:10:15.675Z,6.10
2018-12-31T04:12:42.907Z,6.10
2018-12-31T04:15:10.138Z,6.00
2018-12-31T04:17:37.460Z,6.00
2018-12-31T04:20:04.746Z,6.00
2018-12-31T04:22:32.114Z,6.00
2018-12-31T04:24:59.347Z,6.00
2018-12-31T04:27:26.612Z,5.90
2018-12-31T04:29:53.886Z,6.00
2018-12-31T04:32:21.203Z,6.20
2018-12-31T04:34:48.950Z,6.10
2018-12-31T04:37:16.282Z,6.10
2018-12-31T04:39:43.520Z,6.00
2018-12-31T04:42:10.744Z,6.10
2018-12-31T04:44:38.003Z,6.00
2018-12-31T04:47:05.256Z,6.00
2018-12-31T04:49:32.558Z,6.10
2018-12-31T04:51:59.821Z,6.10
2018-12-31T04:54:27.270Z,5.90
2018-12-31T04:56:54.512Z,6.00
2018-12-31T04:59:22.243Z,6.00
2018-12-31T05:01:49.651Z,6.00
2018-12-31T05:04:16.889Z,6.00
2018-12-31T05:06:44.112Z,6.00
2018-12-31T05:09:11.366Z,5.90
2018-12-31T05:11:38.633Z,6.00
2018-12-31T05:14:05.960Z,6.00
2018-12-31T05:16:33.368Z,6.00
2018-12-31T05:19:00.617Z,6.00
2018-12-31T05:21:28.083Z,6.00
2018-12-31T05:23:55.340Z,6.00
2018-12-31T05:26:22.692Z,6.00
2018-12-31T05:28:49.981Z,6.00
2018-12-31T05:31:17.604Z,5.90
2018-12-31T05:33:44.884Z,6.00
2018-12-31T05:36:12.348Z,6.00
2018-12-31T05:38:39.615Z,5.80
2018-12-31T05:41:06.867Z,6.00
2018-12-31T05:43:34.120Z,6.00
2018-12-31T05:46:01.433Z,5.90
2018-12-31T05:48:28.697Z,5.90
2018-12-31T05:50:55.928Z,6.00
2018-12-31T05:53:23.172Z,5.90
2018-12-31T05:55:50.435Z,6.10
2018-12-31T05:58:17.659Z,5.90
2018-12-31T06:00:44.911Z,6.00
2018-12-31T06:03:12.135Z,6.00
2018-12-31T06:05:39.367Z,6.10
2018-12-31T06:08:06.599Z,6.10
2018-12-31T06:10:33.942Z,6.00
2018-12-31T06:13:01.259Z,6.00
2018-12-31T06:15:28.471Z,5.90
2018-12-31T06:17:55.719Z,5.90
2018-12-31T06:20:22.931Z,6.00
2018-12-31T06:22:50.196Z,6.10
2018-12-31T06:25:17.548Z,6.00
2018-12-31T06:27:44.767Z,6.10
2018-12-31T06:30:12.095Z,6.00
2018-12-31T06:32:39.335Z,6.10
2018-12-31T06:35:06.570Z,6.00
2018-12-31T06:37:33.806Z,6.00
2018-12-31T06:40:01.036Z,6.10
2018-12-31T06:42:28.360Z,5.90
2018-12-31T06:44:55.710Z,6.00
2018-12-31T06:47:22.968Z,6.00
2018-12-31T06:49:50.179Z,6.00
2018-12-31T06:52:17.419Z,6.00
2018-12-31T06:54:44.651Z,6.00
2018-12-31T06:57:11.926Z,6.00
2018-12-31T06:59:39.142Z,6.10
2018-12-31T07:02:06.378Z,6.00
2018-12-31T07:04:33.595Z,6.00
2018-12-31T07:07:00.825Z,6.00
2018-12-31T07:09:28.078Z,6.10
2018-12-31T07:11:55.286Z,6.10
2018-12-31T07:14:22.504Z,6.10
2018-12-31T07:16:49.831Z,6.00
2018-12-31T07:19:17.119Z,6.00
2018-12-31T07:21:48.379Z,6.10
2018-12-31T07:24:15.590Z,6.10
2018-12-31T07:26:42.795Z,6.20
2018-12-31T07:29:10.051Z,6.20
2018-12-31T07:31:37.315Z,6.00
2018-12-31T07:34:04.551Z,6.10
2018-12-31T07:36:31.770Z,6.00
2018-12-31T07:39:00.119Z,6.20
2018-12-31T07:41:27.359Z,6.20
2018-12-31T07:43:54.599Z,6.10
2018-12-31T07:46:21.839Z,6.20
2018-12-31T07:48:49.147Z,6.20
2018-12-31T07:51:16.403Z,6.10
2018-12-31T07:53:43.627Z,6.40
2018-12-31T07:56:10.916Z,6.30
2018-12-31T07:58:38.135Z,6.20
2018-12-31T08:01:05.516Z,6.30
2018-12-31T08:03:32.775Z,6.20
2018-12-31T08:06:00.456Z,6.20
2018-12-31T08:08:27.692Z,6.30
2018-12-31T08:10:55.064Z,6.20
2018-12-31T08:13:22.516Z,6.20
2018-12-31T08:15:50.967Z,6.20
2018-12-31T08:18:18.207Z,6.30
2018-12-31T08:20:45.451Z,6.40
2018-12-31T08:23:12.828Z,6.40
2018-12-31T08:25:40.159Z,6.30
2018-12-31T08:28:07.471Z,6.30
2018-12-31T08:30:34.858Z,6.20
2018-12-31T08:33:02.240Z,6.30
2018-12-31T08:35:29.595Z,6.30
2018-12-31T08:37:56.823Z,6.20
2018-12-31T08:40:24.062Z,6.30
2018-12-31T08:42:51.299Z,6.30
2018-12-31T08:45:18.548Z,6.30
2018-12-31T08:47:45.834Z,6.30
2018-12-31T08:50:13.083Z,6.40
2018-12-31T08:52:40.300Z,6.50
2018-12-31T08:55:07.611Z,6.50
2018-12-31T08:57:34.871Z,6.40
2018-12-31T09:00:02.323Z,6.40
2018-12-31T09:02:29.555Z,6.50
2018-12-31T09:04:56.807Z,6.60
2018-12-31T09:07:24.035Z,6.70
2018-12-31T09:09:51.631Z,6.60
2018-12-31T09:12:22.681Z,6.60
2018-12-31T09:14:50.327Z,6.70
2018-12-31T09:17:17.571Z,6.70
2018-12-31T09:19:44.819Z,6.70
2018-12-31T09:22:12.079Z,6.70
2018-12-31T09:24:44.655Z,6.80
2018-12-31T09:27:08.487Z,6.70
2018-12-31T09:29:35.719Z,6.80
2018-12-31T09:32:02.985Z,6.80
2018-12-31T09:34:30.217Z,6.80
2018-12-31T09:36:57.479Z,6.80
2018-12-31T09:39:24.704Z,6.80
2018-12-31T09:41:53.416Z,6.90
2018-12-31T09:44:20.870Z,6.90
2018-12-31T09:46:48.074Z,7.00
2018-12-31T09:49:15.738Z,7.00
2018-12-31T09:51:42.968Z,7.00
2018-12-31T09:54:10.204Z,7.00
2018-12-31T09:56:37.472Z,7.00
2018-12-31T09:59:04.687Z,7.10
2018-12-31T10:01:31.909Z,7.20
2018-12-31T10:03:59.148Z,7.10
2018-12-31T10:06:26.379Z,7.20
2018-12-31T10:08:53.623Z,7.10
2018-12-31T10:11:20.859Z,7.10
2018-12-31T10:13:48.084Z,7.20
2018-12-31T10:16:15.344Z,7.20
2018-12-31T10:18:42.585Z,7.30
2018-12-31T10:21:09.840Z,7.20
2018-12-31T10:23:37.098Z,7.20
2018-12-31T10:26:04.347Z,7.30
2018-12-31T10:28:31.641Z,7.10
2018-12-31T10:30:58.887Z,7.20
2018-12-31T10:33:26.114Z,7.20
2018-12-31T10:35:53.350Z,7.20
2018-12-31T10:38:20.611Z,7.30
2018-12-31T10:40:47.880Z,7.40
2018-12-31T10:43:17.208Z,7.30
2018-12-31T10:45:44.440Z,7.20
2018-12-31T10:48:11.713Z,7.40
2018-12-31T10:50:39.027Z,7.40
2018-12-31T10:53:06.259Z,7.40
2018-12-31T10:55:33.596Z,7.50
2018-12-31T10:58:00.824Z,7.50
2018-12-31T11:00:28.085Z,7.60
2018-12-31T11:02:55.323Z,7.70
2018-12-31T11:05:22.583Z,7.60
2018-12-31T11:07:49.847Z,7.70
2018-12-31T11:10:17.064Z,7.60
2018-12-31T11:12:45.791Z,7.70
2018-12-31T11:15:13.193Z,7.70
2018-12-31T11:17:40.419Z,7.90
2018-12-31T11:20:07.691Z,7.90
2018-12-31T11:22:35.073Z,8.00
2018-12-31T11:25:03.336Z,8.00
2018-12-31T11:27:32.720Z,8.10
2018-12-31T11:29:59.979Z,8.10
2018-12-31T11:32:27.246Z,8.10
2018-12-31T11:34:54.648Z,8.30
2018-12-31T11:37:21.896Z,8.40
2018-12-31T11:39:49.139Z,8.50
2018-12-31T11:42:16.383Z,8.60
2018-12-31T11:44:44.099Z,8.70
2018-12-31T11:47:11.355Z,9.00
2018-12-31T11:49:38.596Z,9.00
2018-12-31T11:52:05.840Z,9.30
2018-12-31T11:54:33.111Z,9.40
2018-12-31T11:57:00.456Z,9.50
2018-12-31T11:59:27.715Z,9.70
2018-12-31T12:01:55.754Z,10.00
2018-12-31T12:04:23.275Z,10.00
2018-12-31T12:06:50.603Z,10.10
2018-12-31T12:09:17.908Z,10.20
2018-12-31T12:11:45.140Z,10.70
2018-12-31T12:14:12.406Z,11.30
2018-12-31T12:16:39.728Z,11.60
2018-12-31T12:19:07.360Z,11.70
2018-12-31T12:21:34.742Z,11.50
2018-12-31T12:24:01.978Z,11.10
2018-12-31T12:26:29.331Z,11.00
2018-12-31T12:28:56.591Z,10.90
2018-12-31T12:31:23.840Z,11.10
2018-12-31T12:33:51.079Z,11.00
2018-12-31T12:36:18.326Z,10.70
2018-12-31T12:38:45.547Z,10.50
2018-12-31T12:41:12.835Z,10.70
2018-12-31T12:43:40.070Z,10.50
2018-12-31T12:46:07.319Z,10.40
2018-12-31T12:48:34.559Z,10.30
2018-12-31T12:51:01.848Z,10.10
2018-12-31T12:53:29.080Z,10.00
2018-12-31T12:55:56.303Z,9.90
2018-12-31T12:58:23.574Z,9.90
2018-12-31T13:00:51.231Z,9.80
2018-12-31T13:03:18.455Z,9.60
2018-12-31T13:05:45.697Z,9.60
2018-12-31T13:08:12.944Z,9.60
2018-12-31T13:10:40.372Z,9.50
2018-12-31T13:13:07.793Z,9.50
2018-12-31T13:15:35.246Z,9.20
2018-12-31T13:18:02.562Z,9.20
2018-12-31T13:20:29.983Z,9.10
2018-12-31T13:22:57.344Z,9.00
2018-12-31T13:25:24.629Z,9.00
2018-12-31T13:27:52.290Z,8.90
2018-12-31T13:30:19.539Z,8.80
2018-12-31T13:32:46.956Z,8.70
2018-12-31T13:35:14.294Z,8.60
2018-12-31T13:37:42.595Z,8.80
2018-12-31T13:40:10.823Z,8.80
2018-12-31T13:42:38.420Z,8.80
2018-12-31T13:45:05.887Z,8.80
2018-12-31T13:47:33.316Z,8.80
2018-12-31T13:50:00.641Z,8.80
2018-12-31T13:52:29.306Z,8.80
2018-12-31T13:54:59.185Z,8.70
2018-12-31T13:57:26.743Z,8.70
2018-12-31T13:59:54.193Z,8.70
2018-12-31T14:02:21.754Z,8.70
2018-12-31T14:04:49.072Z,8.70
2018-12-31T14:07:16.372Z,8.70
2018-12-31T14:09:43.619Z,8.60
2018-12-31T14:12:10.881Z,8.60
2018-12-31T14:14:38.132Z,8.50
2018-12-31T14:17:05.415Z,8.60
2018-12-31T14:19:32.746Z,8.50
2018-12-31T14:22:00.600Z,8.50
2018-12-31T14:24:27.858Z,8.50
2018-12-31T14:27:00.460Z,8.60
2018-12-31T14:29:32.282Z,8.50
2018-12-31T14:31:59.605Z,8.50
2018-12-31T14:34:27.401Z,8.50
2018-12-31T14:36:54.851Z,8.50
2018-12-31T14:39:22.240Z,8.60
2018-12-31T14:41:51.487Z,8.50
2018-12-31T14:44:19.053Z,8.60
2018-12-31T14:46:46.876Z,8.50
2018-12-31T14:49:14.406Z,8.40
2018-12-31T14:51:41.988Z,8.30
2018-12-31T14:54:09.375Z,8.30
2018-12-31T14:56:38.815Z,8.20
2018-12-31T14:59:06.226Z,8.30
2018-12-31T15:01:33.944Z,8.20
2018-12-31T15:04:03.599Z,8.30
2018-12-31T15:06:35.499Z,8.20
2018-12-31T15:09:04.340Z,8.20
2018-12-31T15:11:31.708Z,8.20
2018-12-31T15:13:59.203Z,8.20
2018-12-31T15:16:26.807Z,8.10
2018-12-31T15:18:54.176Z,8.00
2018-12-31T15:21:23.680Z,8.10
2018-12-31T15:23:50.990Z,8.10
2018-12-31T15:26:18.364Z,8.10
2018-12-31T15:28:45.607Z,8.10
2018-12-31T15:31:15.066Z,8.10
2018-12-31T15:33:42.348Z,8.00
2018-12-31T15:36:09.622Z,8.10
2018-12-31T15:38:36.932Z,8.00
2018-12-31T15:41:04.671Z,8.00
2018-12-31T15:43:32.152Z,8.00
2018-12-31T15:45:59.523Z,8.00
2018-12-31T15:48:29.377Z,7.90
2018-12-31T15:50:56.738Z,7.90
2018-12-31T15:53:24.095Z,7.90
2018-12-31T15:55:51.560Z,7.90
2018-12-31T15:58:18.907Z,8.00
2018-12-31T16:00:46.204Z,7.90
2018-12-31T16:03:14.676Z,7.80
2018-12-31T16:05:41.960Z,7.80
2018-12-31T16:08:09.637Z,7.80
2018-12-31T16:10:36.943Z,7.80
2018-12-31T16:13:04.466Z,7.80
2018-12-31T16:15:31.999Z,7.80
2018-12-31T16:17:59.291Z,7.80
2018-12-31T16:20:26.759Z,7.80
2018-12-31T16:22:54.323Z,7.70
2018-12-31T16:25:21.676Z,7.80
2018-12-31T16:27:48.987Z,7.80
2018-12-31T16:30:16.240Z,7.80
2018-12-31T16:32:43.480Z,7.70
2018-12-31T16:35:10.733Z,7.80
2018-12-31T16:37:38.023Z,7.70
2018-12-31T16:40:06.764Z,7.60
2018-12-31T16:42:34.073Z,7.70
2018-12-31T16:45:01.458Z,7.60
2018-12-31T16:47:30.616Z,7.50
2018-12-31T16:49:58.408Z,7.60
2018-12-31T16:52:26.750Z,7.60
2018-12-31T16:54:54.076Z,7.60
2018-12-31T16:57:21.632Z,7.60
2018-12-31T16:59:48.881Z,7.50
2018-12-31T17:02:18.402Z,7.60
2018-12-31T17:04:50.884Z,7.60
2018-12-31T17:07:18.236Z,7.50
2018-12-31T17:09:45.465Z,7.50
2018-12-31T17:12:12.705Z,7.50
2018-12-31T17:14:41.139Z,7.50
2018-12-31T17:17:09.848Z,7.50
2018-12-31T17:19:37.289Z,7.30
2018-12-31T17:22:04.654Z,7.50
2018-12-31T17:24:32.051Z,7.40
2018-12-31T17:27:01.402Z,7.30
2018-12-31T17:29:28.676Z,7.40
2018-12-31T17:31:55.935Z,7.30
2018-12-31T17:34:23.364Z,7.40
2018-12-31T17:36:53.329Z,7.40
2018-12-31T17:39:20.739Z,7.40
2018-12-31T17:41:48.101Z,7.40
2018-12-31T17:44:15.427Z,7.30
2018-12-31T17:46:44.310Z,7.30
2018-12-31T17:49:11.682Z,7.20
2018-12-31T17:51:39.068Z,7.30
2018-12-31T17:54:06.403Z,7.20
2018-12-31T17:56:33.643Z,7.20
2018-12-31T17:59:01.225Z,7.20
2018-12-31T18:01:28.456Z,7.10
2018-12-31T18:03:55.813Z,7.30
2018-12-31T18:06:23.155Z,7.30
2018-12-31T18:08:50.439Z,7.30
2018-12-31T18:11:17.792Z,7.20
2018-12-31T18:13:45.436Z,7.20
2018-12-31T18:16:12.763Z,7.20
2018-12-31T18:18:40.049Z,7.30
2018-12-31T18:21:07.291Z,7.20
2018-12-31T18:23:34.631Z,7.30
2018-12-31T18:26:02.009Z,7.20
2018-12-31T18:28:29.343Z,7.30
2018-12-31T18:30:56.604Z,7.40
2018-12-31T18:33:24.007Z,7.20
2018-12-31T18:35:52.377Z,7.20
2018-12-31T18:38:19.679Z,7.20
2018-12-31T18:40:47.334Z,7.20
2018-12-31T18:43:14.607Z,7.20
2018-12-31T18:45:41.868Z,7.30
2018-12-31T18:48:09.199Z,7.20
2018-12-31T18:50:36.550Z,7.20
2018-12-31T18:53:03.771Z,7.20
2018-12-31T18:55:31.404Z,7.20
2018-12-31T18:57:58.634Z,7.20
2018-12-31T19:00:25.863Z,7.20
2018-12-31T19:02:53.159Z,7.30
2018-12-31T19:05:20.447Z,7.30
2018-12-31T19:07:47.668Z,7.20
2018-12-31T19:10:15.191Z,7.20
2018-12-31T19:12:42.467Z,7.30
2018-12-31T19:15:09.799Z,7.30
2018-12-31T19:17:37.054Z,7.20
2018-12-31T19:20:04.616Z,7.30
2018-12-31T19:22:31.871Z,7.20
2018-12-31T19:24:59.308Z,7.30
2018-12-31T19:27:26.611Z,7.30
2018-12-31T19:29:53.971Z,7.10
2018-12-31T19:32:21.303Z,7.20
2018-12-31T19:34:48.571Z,7.20
2018-12-31T19:37:15.938Z,7.20
2018-12-31T19:39:44.805Z,7.20
2018-12-31T19:42:12.152Z,7.30
2018-12-31T19:44:39.456Z,7.30
2018-12-31T19:47:06.707Z,7.20
2018-12-31T19:49:34.128Z,7.20
2018-12-31T19:52:01.468Z,7.30
2018-12-31T19:54:28.758Z,7.20
2018-12-31T19:56:56.121Z,7.10
2018-12-31T19:59:23.483Z,7.20
2018-12-31T20:01:50.724Z,7.30
2018-12-31T20:04:18.050Z,7.20
2018-12-31T20:06:45.365Z,7.20
2018-12-31T20:09:12.769Z,7.20
2018-12-31T20:11:40.064Z,7.20
2018-12-31T20:14:07.439Z,7.20
2018-12-31T20:16:34.683Z,7.20
2018-12-31T20:19:01.932Z,7.30
2018-12-31T20:21:30.417Z,7.30
2018-12-31T20:23:57.710Z,7.30
2018-12-31T20:26:24.934Z,7.30
2018-12-31T20:28:52.287Z,7.30
2018-12-31T20:31:19.559Z,7.30
2018-12-31T20:33:46.895Z,7.20
2018-12-31T20:36:14.156Z,7.20
2018-12-31T20:38:41.696Z,7.20
2018-12-31T20:41:09.051Z,7.10
2018-12-31T20:43:36.407Z,7.10
2018-12-31T20:46:03.651Z,7.20
2018-12-31T20:48:31.035Z,7.20
2018-12-31T20:50:58.371Z,7.20
2018-12-31T20:53:26.022Z,7.20
2018-12-31T20:55:53.261Z,7.20
2018-12-31T20:58:20.512Z,7.10
2018-12-31T21:00:47.854Z,7.20
2018-12-31T21:03:15.199Z,7.20
2018-12-31T21:05:42.427Z,7.10
2018-12-31T21:08:09.662Z,7.10
2018-12-31T21:10:37.031Z,7.10
2018-12-31T21:13:04.359Z,7.10
2018-12-31T21:15:31.644Z,7.10
2018-12-31T21:17:58.888Z,7.10
2018-12-31T21:20:26.271Z,7.10
2018-12-31T21:22:53.943Z,7.00
2018-12-31T21:25:21.198Z,7.10
2018-12-31T21:27:48.443Z,7.00
2018-12-31T21:30:15.715Z,7.10
2018-12-31T21:32:42.976Z,7.00
2018-12-31T21:35:10.219Z,7.00
2018-12-31T21:37:37.559Z,7.10
2018-12-31T21:40:07.056Z,7.00
2018-12-31T21:42:34.384Z,7.10
2018-12-31T21:45:01.706Z,7.10
2018-12-31T21:47:29.038Z,7.10
2018-12-31T21:49:56.354Z,7.00
2018-12-31T21:52:24.195Z,7.00
2018-12-31T21:54:51.423Z,7.00
2018-12-31T21:57:18.668Z,7.00
2018-12-31T21:59:45.957Z,7.00
2018-12-31T22:02:13.271Z,7.00
2018-12-31T22:04:40.512Z,6.90
2018-12-31T22:07:08.219Z,7.00
2018-12-31T22:09:38.793Z,6.90
2018-12-31T22:12:08.803Z,7.00
2018-12-31T22:14:36.109Z,6.90
2018-12-31T22:17:15.635Z,7.00
2018-12-31T22:19:43.013Z,7.00
2018-12-31T22:22:10.256Z,7.00
2018-12-31T22:24:37.648Z,7.00
2018-12-31T22:27:14.479Z,6.90
2018-12-31T22:29:44.263Z,6.90
2018-12-31T22:32:11.489Z,6.80
2018-12-31T22:34:38.910Z,6.90
2018-12-31T22:37:10.946Z,6.90
2018-12-31T22:39:38.283Z,7.00
2018-12-31T22:42:05.722Z,7.00
2018-12-31T22:44:33.540Z,6.90
2018-12-31T22:47:02.888Z,6.90
2018-12-31T22:49:36.095Z,6.90
2018-12-31T22:52:03.454Z,6.90
2018-12-31T22:54:30.683Z,6.90
2018-12-31T22:57:04.383Z,6.90
2018-12-31T22:59:31.603Z,6.90
2018-12-31T23:01:58.939Z,6.90
2018-12-31T23:04:26.164Z,7.00
2018-12-31T23:06:57.313Z,7.00
2018-12-31T23:09:24.943Z,6.90
2018-12-31T23:11:52.219Z,7.00
2018-12-31T23:14:19.551Z,6.90
2018-12-31T23:16:50.435Z,6.90
2018-12-31T23:19:17.661Z,6.90
2018-12-31T23:21:45.072Z,6.90
2018-12-31T23:24:12.400Z,7.00
2018-12-31T23:26:39.789Z,7.00
2018-12-31T23:29:07.036Z,6.90
2018-12-31T23:31:34.283Z,6.90
2018-12-31T23:34:01.643Z,6.80
2018-12-31T23:36:28.967Z,6.90
2018-12-31T23:38:56.308Z,6.90
2018-12-31T23:41:27.136Z,6.80
2018-12-31T23:43:54.455Z,6.90
2018-12-31T23:46:21.692Z,6.90
2018-12-31T23:48:48.933Z,6.90
2018-12-31T23:51:16.574Z,6.90
2018-12-31T23:53:43.943Z,6.80
2018-12-31T23:56:11.282Z,6.70
2018-12-31T23:58:38.696Z,6.80
